Petrozavodsk Airport

ULPB · Karelia, Russia

METAR history ULPB · Petrozavodsk Airport

Below you see METARs of the last few days. Select a year to browse through older METARs, from the year 2007 onwards.

July 21, 2024

Time Code Weather Temp. Visibility Ceiling Wind METAR/SPECI
20:30
V
23 °C 10 km+ - 060° 060° 3 kt METAR ULPB 211730Z 06002MPS 020V080 CAVOK 23/13 Q1013 R01/CLRD70 NOSIG RMK QFE756/1008
20:00
V
23 °C 10 km+ - 070° 070° 5 kt METAR ULPB 211700Z 07003MPS 040V100 CAVOK 23/13 Q1013 R01/CLRD70 NOSIG RMK QFE756/1008
19:30
V
24 °C 10 km+ - 070° 070° 5 kt METAR ULPB 211630Z 07003MPS 040V100 CAVOK 24/13 Q1013 R01/CLRD70 NOSIG RMK QFE756/1008
19:00
V
24 °C 10 km+ - 080° 080° 5 kt METAR ULPB 211600Z 08003MPS 040V110 CAVOK 24/13 Q1013 R01/CLRD70 NOSIG RMK QFE756/1008
18:30
V
24 °C 10 km+ - 060° 060° 7 kt METAR ULPB 211530Z 06004MPS 030V090 CAVOK 24/13 Q1013 R01/CLRD70 NOSIG RMK QFE756/1008
18:00
V
25 °C 10 km+ - 060° 060° 7 kt METAR ULPB 211500Z 06004MPS 030V100 CAVOK 25/12 Q1013 R01/CLRD70 NOSIG RMK QFE756/1008
17:30
V
25 °C 10 km+ - 060° 060° 9 kt METAR ULPB 211430Z 06005MPS 030V100 9999 FEW048 25/14 Q1013 R01/CLRD70 NOSIG RMK QFE756/1008
17:00
V
25 °C 10 km+ - 070° 070° 9 kt METAR ULPB 211400Z 07005MPS 030V110 9999 FEW047 25/14 Q1013 R01/CLRD70 NOSIG RMK QFE756/1008
16:30
V
24 °C 10 km+ - 090° 090° 9 kt METAR ULPB 211330Z 09005MPS 050V110 9999 FEW047 24/14 Q1013 R01/CLRD70 NOSIG RMK QFE756/1008
16:00
V
25 °C 10 km+ - 070° 070° 9 kt METAR ULPB 211300Z 07005MPS 040V110 9999 FEW044 25/14 Q1013 R01/CLRD70 NOSIG RMK QFE756/1008
15:30
V
24 °C 10 km+ - 070° 070° 9 kt METAR ULPB 211230Z 07005MPS 040V100 9999 FEW043 24/14 Q1013 R01/CLRD70 NOSIG RMK QFE756/1008
15:00
V
25 °C 10 km+ - 060° 060° 11 kt METAR ULPB 211200Z 06006MPS 9999 FEW043 25/14 Q1013 R01/CLRD70 NOSIG RMK QFE756/1008
14:30
V
25 °C 10 km+ - 070° 070° 9 kt METAR ULPB 211130Z 07005MPS 030V110 9999 FEW043 25/14 Q1013 R01/CLRD70 NOSIG RMK QFE756/1008
14:00
V
24 °C 10 km+ - 080° 080° 9 kt METAR ULPB 211100Z 08005MPS 050V120 9999 FEW048 24/14 Q1013 R01/CLRD70 NOSIG RMK QFE756/1008
13:30
V
24 °C 10 km+ - 090° 090° 9 kt METAR ULPB 211030Z 09005MPS 060V140 9999 FEW046 24/14 Q1013 R01/CLRD70 NOSIG RMK QFE756/1008
13:00
V
24 °C 10 km+ - 080° 080° 9 kt METAR ULPB 211000Z 08005MPS 060V120 9999 FEW044 24/14 Q1013 R01/CLRD70 NOSIG RMK QFE756/1008
12:30
V
24 °C 10 km+ - 090° 090° 7 kt METAR ULPB 210930Z 09004MPS 040V130 CAVOK 24/14 Q1013 R01/CLRD70 NOSIG RMK QFE756/1008
12:00
V
24 °C 10 km+ - 070° 070° 7 kt METAR ULPB 210900Z 07004MPS 030V120 CAVOK 24/15 Q1013 R01/CLRD70 NOSIG RMK QFE756/1008
11:30
V
23 °C 10 km+ - 060° 060° 7 kt METAR ULPB 210830Z 06004MPS 030V100 CAVOK 23/15 Q1013 R01/CLRD70 NOSIG RMK QFE756/1008
11:00
V
22 °C 10 km+ - 050° 050° 5 kt METAR ULPB 210800Z 05003MPS 010V090 CAVOK 22/16 Q1013 R01/CLRD70 NOSIG RMK QFE756/1008
10:30
V
22 °C 10 km+ - 020° 020° 5 kt METAR ULPB 210730Z 02003MPS 340V060 CAVOK 22/16 Q1013 R01/CLRD70 NOSIG RMK QFE756/1008
10:00
V
21 °C 10 km+ - 330° 330° 7 kt METAR ULPB 210700Z 33004MPS 300V360 9999 FEW021 21/16 Q1013 R01/CLRD70 NOSIG RMK QFE756/1008
09:30
V
20 °C 10 km+ - 350° 350° 5 kt METAR ULPB 210630Z 35003MPS 310V030 9999 FEW049 20/16 Q1013 R01/CLRD70 NOSIG RMK QFE756/1008
09:00
V
20 °C 10 km+ - 360° 360° 5 kt METAR ULPB 210600Z 36003MPS 320V050 9999 FEW049 20/16 Q1013 R01/CLRD70 NOSIG RMK QFE756/1008
08:30
V
20 °C 10 km+ - 030° 030° 5 kt METAR ULPB 210530Z 03003MPS 010V070 9999 FEW049 20/16 Q1013 R01/CLRD70 NOSIG RMK QFE755/1007
08:00
V
20 °C 10 km+ - 020° 020° 5 kt METAR ULPB 210500Z 02003MPS 350V080 9999 FEW016 20/16 Q1013 R01/CLRD70 NOSIG RMK QFE756/1008
07:39
V
19 °C 10 km+ - 040° 040° 5 kt METAR ULPB 210439Z 04003MPS CAVOK 19/15 Q1013 NOSIG RMK QFE755/1007
07:00
V
18 °C 10 km+ - 030° 030° 3 kt METAR ULPB 210400Z AUTO 03002MPS 9999 // ///040/// 18/16 Q1013 RMK QFE755/1007
06:00
V
18 °C 10 km+ - 020° 020° 5 kt METAR ULPB 210300Z AUTO 02003MPS 350V050 9999 // NSC 18/16 Q1012 RMK QFE755/1007
05:00
V
17 °C 10 km+ - 350° 350° 3 kt METAR ULPB 210200Z AUTO 35002MPS 9999 // NSC 17/16 Q1012 RMK QFE755/1007
04:00
V
16 °C 10 km+ - 340° 340° 1 kt METAR ULPB 210100Z AUTO 34001MPS 9999 // NSC 16/16 Q1012 RMK QFE755/1007
03:00
V
17 °C 10 km+ - 020° 020° 3 kt METAR ULPB 210000Z AUTO 02002MPS 350V060 9999 // ///077/// 17/17 Q1012 RMK QFE755/1006
02:00
V
18 °C 10 km+ - 020° 020° 3 kt METAR ULPB 202300Z AUTO 02002MPS 9999 // ///031/// 18/17 Q1011 RMK QFE754/1006
01:00
V
18 °C 10 km+ - 020° 020° 5 kt METAR ULPB 202200Z AUTO 02003MPS 9999 // ///007/// 18/18 Q1011 RMK QBB210 QFE754/1006
00:00
V
18 °C 10 km+ - 020° 020° 3 kt METAR ULPB 202100Z AUTO 02002MPS 9999 // ///007/// 18/18 Q1011 RMK QBB220 QFE754/1006

July 20, 2024

Time Code Weather Temp. Visibility Ceiling Wind METAR/SPECI
23:00
V
19 °C 10 km+ - 020° 020° 3 kt METAR ULPB 202000Z AUTO 02002MPS 9999 // ///032/// 19/18 Q1011 RMK QFE754/1006
22:00
V
20 °C 10 km+ - 010° 010° 5 kt METAR ULPB 201900Z AUTO 01003MPS 9999 // ///016/// 20/18 Q1011 RMK QFE754/1005
21:00
V
21 °C 10 km+ - 020° 020° 7 kt METAR ULPB 201800Z AUTO 02004MPS 9999 // ///040/// 21/17 Q1011 RMK QFE754/1005
20:00
V
21 °C 10 km+ - 030° 030° 3 kt METAR ULPB 201700Z 03002MPS 9999 SCT021 21/17 Q1010 R01/CLRD70 NOSIG RMK QFE754/1005
19:30
V
21 °C 10 km+ - 040° 040° 5 kt METAR ULPB 201630Z 04003MPS 9999 SCT020 21/17 Q1010 R01/CLRD70 NOSIG RMK QFE754/1005
19:00
V
21 °C 10 km+ - 040° 040° 3 kt METAR ULPB 201600Z 04002MPS 360V070 9999 SCT023 21/17 Q1010 R01/CLRD70 NOSIG RMK QFE754/1005
18:30
V
21 °C 10 km+ 3,600 ft 060° 060° 5 kt METAR ULPB 201530Z 06003MPS 020V090 9999 SCT018 BKN036 21/17 Q1010 R01/CLRD70 NOSIG RMK QFE754/1005
18:00
V
21 °C 10 km+ 3,600 ft 050° 050° 7 kt METAR ULPB 201500Z 05004MPS 9999 SCT019 BKN036 21/17 Q1010 R01/CLRD70 NOSIG RMK QFE754/1005
17:30
V
21 °C 10 km+ - 040° 040° 7 kt METAR ULPB 201430Z 04004MPS 020V080 9999 SCT019 21/17 Q1010 R01/CLRD70 NOSIG RMK QFE753/1005
17:00
V
21 °C 10 km+ 3,600 ft 050° 050° 7 kt METAR ULPB 201400Z 05004MPS 9999 SCT020 BKN036 21/17 Q1010 R01/CLRD70 NOSIG RMK QFE753/1004
16:30
V
21 °C 10 km+ 3,600 ft 040° 040° 7 kt METAR ULPB 201330Z 04004MPS 010V080 9999 SCT018 BKN036 21/17 Q1010 R01/CLRD70 NOSIG RMK QFE753/1004
16:00
M
21 °C 10 km+ 1,800 ft 050° 050° 7 kt METAR ULPB 201300Z 05004MPS 020V090 9999 BKN018 BKN036 21/17 Q1010 R01/CLRD70 NOSIG RMK QFE753/1004
15:30
M
21 °C 10 km+ 1,800 ft 040° 040° 9 kt METAR ULPB 201230Z 04005MPS 010V080 9999 BKN018 BKN036 21/17 Q1010 R01/CLRD70 NOSIG RMK QFE753/1004
15:00
M
22 °C 10 km+ 2,400 ft 040° 040° 7 kt METAR ULPB 201200Z 04004MPS 020V100 9999 BKN024 BKN048CB 22/17 Q1010 R01/CLRD70 NOSIG RMK QFE753/1004
14:30
M
21 °C 10 km+ 2,200 ft 030° 030° 7 kt METAR ULPB 201130Z 03004MPS 350V060 9999 BKN022 BKN045CB 21/17 Q1010 R01/CLRD70 NOSIG RMK QFE753/1004
14:00
M
21 °C 10 km+ 2,400 ft 020° 020° 5 kt METAR ULPB 201100Z 02003MPS 350V080 9999 -SHRA BKN024 BKN045CB 21/16 Q1009 R01/CLRD70 NOSIG RMK QFE753/1004
13:30
M
21 °C 10 km+ 2,000 ft 090° 090° 3 kt METAR ULPB 201030Z 09002MPS 060V150 9999 -SHRA BKN020 BKN037CB 21/18 Q1009 R01/CLRD70 NOSIG RMK QFE753/1004
13:00
M
21 °C 10 km+ 1,500 ft 070° 070° 3 kt METAR ULPB 201000Z 07002MPS 030V120 9999 BKN015CB BKN046 21/17 Q1010 R01/CLRD70 NOSIG RMK QFE753/1004
12:30
M
21 °C 10 km+ 1,600 ft 080° 080° 3 kt METAR ULPB 200930Z 08002MPS 040V120 9999 BKN016CB 21/17 Q1010 R01/CLRD70 NOSIG RMK QFE753/1004
12:00
M
21 °C 10 km+ 1,600 ft 010° 010° 3 kt METAR ULPB 200900Z 01002MPS 340V080 9999 BKN016CB 21/17 Q1009 R01/CLRD70 NOSIG RMK QFE753/1004
11:52
M
21 °C 10 km+ 1,600 ft 020° 020° 3 kt METAR ULPB 200852Z 02002MPS 350V070 9999 BKN016CB 21/17 Q1009 R01/CLRD70 NOSIG RMK QFE753/1004
11:30
M
20 °C 10 km+ 1,500 ft 060° 060° 3 kt METAR ULPB 200830Z 06002MPS 9999 BKN015 20/17 Q1009 R01/CLRD70 NOSIG RMK QFE753/1004
11:04
V
20 °C 10 km+ - 020° 020° 3 kt METAR ULPB 200804Z 02002MPS 340V070 9999 SCT013 20/17 Q1009 R01/CLRD70 NOSIG RMK QFE753/1004
10:30
M
20 °C 10 km+ 1,200 ft 040° 040° 3 kt METAR ULPB 200730Z 04002MPS 340V070 9999 BKN012 20/17 Q1009 R01/CLRD70 NOSIG RMK QFE753/1004
10:19
M
19 °C 10 km+ 1,000 ft 030° 030° 5 kt METAR ULPB 200719Z 03003MPS 9999 BKN010 19/17 Q1009 R01/CLRD70 NOSIG RMK QBB300 QFE753/1004
10:07
I
19 °C 10 km+ 900 ft 020° 020° 5 kt METAR ULPB 200707Z 02003MPS 9999 BKN009 19/17 Q1009 R01/CLRD70 NOSIG RMK QBB290 QFE753/1004
10:00
M
19 °C 10 km+ 1,000 ft 020° 020° 5 kt METAR ULPB 200700Z 02003MPS 9999 BKN010 19/17 Q1009 R01/CLRD70 NOSIG RMK QBB300 QFE753/1004
09:30
V
20 °C 10 km+ - 360° 360° 3 kt METAR ULPB 200630Z 36002MPS 9999 FEW011 20/18 Q1009 R01/CLRD70 NOSIG RMK QBB330 QFE753/1004
09:00
V
20 °C 10 km+ - 030° 030° 3 kt METAR ULPB 200600Z 03002MPS 350V050 9999 FEW008 20/17 Q1009 R01/CLRD70 NOSIG RMK QBB240 QFE752/1003
08:30
V
19 °C 10 km+ - Var Var 1 kt METAR ULPB 200530Z VRB01MPS 9999 FEW008 19/17 Q1009 R01/CLRD70 NOSIG RMK QBB240 QFE753/1004
08:00
V
19 °C 10 km+ - 090° 090° 3 kt METAR ULPB 200500Z 09002MPS 040V130 9999 FEW008 19/17 Q1009 R01/CLRD70 NOSIG RMK QBB240 QFE753/1004
07:47
V
19 °C 10 km+ - Var Var 1 kt METAR ULPB 200447Z VRB01MPS 9999 FEW010 19/17 Q1009 R01/CLRD70 NOSIG RMK QBB310 QFE752/1003
07:30
V
19 °C 10 km+ - Var Var 1 kt METAR ULPB 200430Z VRB01MPS CAVOK 19/17 Q1009 NOSIG RMK QFE753/1004
07:00
V
18 °C 10 km+ - 020° 020° 1 kt METAR ULPB 200400Z 02001MPS CAVOK 18/17 Q1009 NOSIG RMK QFE753/1004
06:00
V
16 °C 10 km+ - 360° 360° 0 kt METAR ULPB 200300Z AUTO 00000MPS 9999 // NSC 16/16 Q1009 RMK QFE753/1004
05:00
V
15 °C 10 km+ - 230° 230° 1 kt METAR ULPB 200200Z AUTO 23001MPS 9999 // NSC 15/15 Q1009 RMK QFE753/1004
04:00
V
15 °C 10 km+ - 360° 360° 0 kt METAR ULPB 200100Z AUTO 00000MPS 9999 // NSC 15/15 Q1009 RMK QFE753/1004
03:00
V
15 °C 10 km+ - 230° 230° 1 kt METAR ULPB 200000Z AUTO 23001MPS 9999 // NSC 15/15 Q1009 RMK QFE753/1004
02:00
V
16 °C 10 km+ - Var Var 1 kt METAR ULPB 192300Z AUTO VRB01MPS 9999 // NSC 16/15 Q1009 RMK QFE753/1004
01:00
V
16 °C 10 km+ - Var Var 1 kt METAR ULPB 192200Z AUTO VRB01MPS 9999 // NCD 16/15 Q1009 RMK QFE753/1004
00:00
V
17 °C 10 km+ - Var Var 1 kt METAR ULPB 192100Z AUTO VRB01MPS 9999 // ///096/// 17/16 Q1009 RMK QFE753/1004

July 19, 2024

Time Code Weather Temp. Visibility Ceiling Wind METAR/SPECI
23:00
V
18 °C 9 km - 080° 080° 1 kt METAR ULPB 192000Z AUTO 08001MPS 9000 // ///039/// 18/17 Q1009 RMK QFE753/1004
22:00
V
18 °C 10 km+ - 080° 080° 3 kt METAR ULPB 191900Z AUTO 08002MPS 9999 // NSC 18/17 Q1009 RMK QFE753/1004
21:00
V
19 °C 10 km+ - 090° 090° 3 kt METAR ULPB 191800Z AUTO 09002MPS 050V140 9999 // NSC 19/17 Q1009 RMK QFE753/1004
20:30
V
19 °C 10 km+ - Var Var 1 kt METAR ULPB 191730Z VRB01MPS CAVOK 19/17 Q1009 R19/CLRD70 NOSIG RMK QFE753/1004
20:00
V
20 °C 10 km+ - Var Var 1 kt METAR ULPB 191700Z VRB01MPS CAVOK 20/17 Q1009 R19/CLRD70 TEMPO VRB15MPS 1500 TSRA SQ BKN016CB RMK QFE753/1004
19:30
V
20 °C 10 km+ - Var Var 1 kt METAR ULPB 191630Z VRB01MPS CAVOK 20/17 Q1009 R19/CLRD70 TEMPO VRB15MPS 1500 TSRA SQ BKN016CB RMK QFE753/1004
19:00
V
20 °C 10 km+ - 110° 110° 3 kt METAR ULPB 191600Z 11002MPS CAVOK 20/17 Q1009 R19/CLRD70 TEMPO VRB15MPS 1500 TSRA SQ BKN016CB RMK QFE753/1004
18:30
V
20 °C 10 km+ - 080° 080° 3 kt METAR ULPB 191530Z 08002MPS 330V140 CAVOK 20/17 Q1009 R19/CLRD70 TEMPO VRB15MPS 1500 TSRA SQ BKN016CB RMK QFE753/1004
18:00
V
20 °C 10 km+ - 120° 120° 3 kt METAR ULPB 191500Z 12002MPS CAVOK 20/17 Q1009 R19/CLRD70 TEMPO VRB15MPS 1500 TSRA SQ BKN016CB RMK QFE753/1004
17:30
V
20 °C 10 km+ - 130° 130° 3 kt METAR ULPB 191430Z 13002MPS CAVOK 20/17 Q1009 R19/CLRD70 TEMPO VRB15MPS 1500 TSRA SQ BKN016CB RMK QFE753/1004
17:00
V
20 °C 10 km+ - 110° 110° 3 kt METAR ULPB 191400Z 11002MPS CAVOK 20/17 Q1009 R19/CLRD70 TEMPO VRB15MPS 1500 TSRA SQ BKN016CB RMK QFE753/1004
16:30
V
20 °C 10 km+ - 090° 090° 3 kt METAR ULPB 191330Z 09002MPS 9999 FEW049 20/17 Q1009 R19/CLRD70 TEMPO VRB15MPS 1500 TSRA SQ BKN016CB RMK QFE753/1004
16:00
V
21 °C 10 km+ - 090° 090° 3 kt METAR ULPB 191300Z 09002MPS 9999 SCT046CB 21/17 Q1009 R19/CLRD70 TEMPO VRB15MPS 1500 TSRA SQ BKN016CB RMK QFE753/1004
15:30
V
21 °C 10 km+ - 120° 120° 3 kt METAR ULPB 191230Z 12002MPS 020V190 9999 SCT046CB 21/16 Q1009 R19/CLRD70 TEMPO VRB15MPS 1500 TSRA SQ BKN016CB RMK QFE753/1004
15:00
V
21 °C 10 km+ - Var Var 1 kt METAR ULPB 191200Z VRB01MPS 9999 SCT040CB 21/15 Q1010 R19/CLRD70 TEMPO VRB15MPS 1500 TSRA SQ BKN016CB RMK QFE753/1004
14:30
V
21 °C 10 km+ - 170° 170° 3 kt METAR ULPB 191130Z 17002MPS CAVOK 21/15 Q1010 R19/CLRD70 TEMPO VRB15MPS 1500 TSRA SQ BKN016CB RMK QFE753/1004
14:00
V
22 °C 10 km+ - 120° 120° 3 kt METAR ULPB 191100Z 12002MPS 9999 SCT033 22/17 Q1010 R19/CLRD70 TEMPO VRB15MPS 1500 TSRA SQ BKN016CB RMK QFE753/1005
13:30
V
23 °C 10 km+ - Var Var 1 kt METAR ULPB 191030Z VRB01MPS 9999 SCT046 23/14 Q1010 R19/CLRD70 NOSIG RMK QFE753/1005
13:00
V
23 °C 10 km+ 3,600 ft 330° 330° 3 kt METAR ULPB 191000Z 33002MPS 9999 BKN036 23/15 Q1010 R19/CLRD70 NOSIG RMK QFE753/1005
12:30
V
23 °C 10 km+ 3,600 ft Var Var 1 kt METAR ULPB 190930Z VRB01MPS 9999 BKN036 23/16 Q1010 R19/CLRD70 NOSIG RMK QFE753/1005
12:00
V
22 °C 10 km+ 3,400 ft 220° 220° 3 kt METAR ULPB 190900Z 22002MPS 150V280 9999 BKN034 22/15 Q1010 R19/CLRD70 NOSIG RMK QFE754/1005
11:30
V
23 °C 10 km+ - 240° 240° 3 kt METAR ULPB 190830Z 24002MPS 220V290 9999 SCT022 23/16 Q1010 R19/CLRD70 NOSIG RMK QFE754/1005
11:28
V
23 °C 10 km+ - 250° 250° 3 kt METAR ULPB 190828Z 25002MPS 190V290 9999 SCT022 23/16 Q1010 R19/CLRD70 NOSIG RMK QFE754/1005
11:00
V
21 °C 10 km+ - Var Var 1 kt METAR ULPB 190800Z VRB01MPS 9999 SCT014 21/17 Q1010 R19/CLRD70 NOSIG RMK QFE754/1005
10:30
V
21 °C 10 km+ - Var Var 1 kt METAR ULPB 190730Z VRB01MPS 9999 SCT012 21/16 Q1010 R19/CLRD70 NOSIG RMK QFE754/1005
10:18
V
21 °C 10 km+ - Var Var 1 kt METAR ULPB 190718Z VRB01MPS 9999 SCT012 21/17 Q1010 R19/CLRD70 NOSIG RMK QFE754/1005
10:00
V
19 °C 10 km+ - 230° 230° 3 kt METAR ULPB 190700Z 23002MPS 200V290 9999 SCT007 19/17 Q1010 R19/CLRD70 NOSIG RMK QBB210 QFE754/1005
09:46
V
18 °C 10 km+ - 270° 270° 3 kt METAR ULPB 190646Z 27002MPS 200V320 9999 SCT006 18/16 Q1011 R19/CLRD70 NOSIG RMK QBB180 QFE754/1006
09:30
I
18 °C 10 km+ 500 ft 260° 260° 3 kt METAR ULPB 190630Z 26002MPS 220V300 9999 BKN005 18/16 Q1011 R19/CLRD70 NOSIG RMK QBB170 QFE754/1006
09:20
I
17 °C 10 km+ 500 ft 260° 260° 3 kt METAR ULPB 190620Z 26002MPS 210V290 9999 BKN005 17/16 Q1011 R19/CLRD70 NOSIG RMK QBB160 QFE754/1006
09:00
L
17 °C 10 km+ 300 ft 250° 250° 3 kt METAR ULPB 190600Z 25002MPS 200V290 9999 BKN003 17/16 Q1011 R19/CLRD70 NOSIG RMK QBB100 OBST OBSC QFE754/1006
Report a change